Daily Summary

Last 30 Days

Daily Data | Pacific/Honolulu
as of 9/20/20 11:25 AM HST
Date Daily Max Temp (°F) Max Temp Time Daily Min Temp (°F) Min Temp Time Daily Rain (In) Seasonal Rainfall (In) Wind Spd (mph) Daily Max Wind (mph) Max Wind Time Max Wind Dir (°) Daily Solar Rad (Cal/cm2) Daily ETo (in) Dew Pt (°F) Max RH (%) Min RH (%) Max Press (inHg) Time of Max Press Min Press (inHg) Time of Min Press Bat Volt Min Day (V)
9/19/20 85.5 1259 77.2 0906 0.00 13.59 7.8 26.2 1320 NNE | 30 496 0.197 69.3 78 57 30.11 0902 30.00 1550 12.8
9/18/20 86.1 1256 77.7 0315 0.00 13.59 8.2 28.4 1949 NNE | 26 549 0.220 68.6 73 54 30.09 1030 29.99 1500 12.8
9/17/20 86.1 1428 77.4 0346 0.00 13.59 6.8 25.6 0953 NNE | 27 612 0.233 67.5 72 53 30.09 0001 29.97 1553 12.8
9/16/20 85.5 1348 77.2 0602 0.00 13.59 6.0 23.2 1258 NNE | 31 621 0.233 66.5 71 47 30.11 0912 30.00 1528 12.7
9/15/20 86.0 1323 77.4 0354 0.00 13.59 6.8 23.7 1647 NE | 36 564 0.217 68.2 75 52 30.11 2201 29.98 1604 12.8
9/14/20 86.3 1256 74.8 0618 0.00 13.59 4.9 19.0 1413 NE | 38 583 0.212 67.0 76 51 30.11 2213 29.96 1456 12.7
9/13/20 86.2 1233 76.6 0805 0.00 13.59 6.2 20.5 1931 NNE | 26 579 0.222 66.3 76 45 30.08 2226 29.95 1628 12.7
9/12/20 84.9 1343 74.2 0514 0.06 13.59 6.7 24.0 1507 NNE | 32 594 0.223 68.3 90 56 30.08 0009 29.93 1704 12.8
9/11/20 84.6 1232 76.8 0452 0.00 13.53 8.9 27.2 1344 NE | 43 629 0.245 67.6 76 55 30.09 0032 29.96 1529 12.8
9/10/20 86.2 1354 77.7 0514 0.00 13.53 9.5 31.8 1444 NNE | 22 638 0.257 67.5 72 51 30.10 2216 29.97 1709 12.8
9/9/20 84.4 1152 77.7 0236 0.00 13.53 8.5 30.4 1420 NE | 39 592 0.232 68.6 77 56 30.05 2200 29.92 1529 12.8
9/8/20 85.0 1204 77.0 0211 0.00 13.53 7.5 23.2 1439 NE | 34 529 0.206 69.4 83 58 30.02 2313 29.91 1627 12.7
9/7/20 86.1 1229 77.7 1944 0.00 13.53 6.3 23.6 1856 NE | 45 485 0.193 69.6 82 56 30.07 0001 29.93 1524 12.8
9/6/20 84.6 1257 75.1 0932 0.03 13.53 7.4 28.5 1638 NE | 38 540 0.210 68.0 86 56 30.13 0933 29.98 1625 12.8
9/5/20 85.5 1511 76.1 0344 0.01 13.50 8.1 26.1 1548 NNE | 26 617 0.246 66.8 82 47 30.11 2207 29.99 1541 12.7
9/4/20 86.2 1208 76.7 0018 0.00 13.49 6.9 22.1 1647 NE | 34 601 0.235 67.5 79 49 30.07 2159 29.95 1514 12.8
9/3/20 85.8 1218 76.5 0546 0.00 13.49 6.6 21.2 1702 NE | 34 583 0.226 67.4 76 51 30.02 2256 29.91 1610 12.8
9/2/20 84.9 1313 75.0 0152 0.02 13.49 7.4 22.4 1124 NE | 37 572 0.223 67.2 82 51 30.05 0904 29.93 1706 12.7
9/1/20 84.3 1257 77.7 0022 0.01 13.47 10.2 32.7 1139 NE | 51 620 0.250 67.6 75 53 30.07 0933 29.97 1638 12.8
8/31/20 83.5 1306 78.2 0433 0.00 13.46 8.9 29.1 1016 NE | 35 514 0.205 69.2 78 62 30.08 2220 29.95 1626 12.7
8/30/20 85.5 1221 78.0 0353 0.00 13.46 9.8 30.4 1508 NNE | 27 660 0.262 67.7 73 55 30.07 2218 29.93 1613 12.7
8/29/20 86.2 1239 78.1 0144 0.00 13.46 8.6 27.3 1504 NE | 40 647 0.263 66.7 70 49 30.08 0917 29.96 1626 12.8
8/28/20 85.8 1247 74.9 0502 0.03 13.46 8.1 28.6 1544 NNE | 22 631 0.246 67.8 86 51 30.07 0909 29.95 1538 12.8
8/27/20 85.7 1326 77.1 2322 0.00 13.43 8.4 25.0 1246 NNE | 32 668 0.260 66.9 78 46 30.04 2245 29.93 1518 12.8
8/26/20 86.1 1358 77.9 0541 0.00 13.43 7.1 24.8 1704 NE | 36 650 0.249 67.9 75 51 30.05 0001 29.93 1532 12.8
8/25/20 86.1 1329 77.8 0230 0.00 13.43 7.2 27.0 1720 NNE | 32 643 0.242 68.8 74 55 30.06 2219 29.94 1558 12.8
8/24/20 85.5 1314 77.7 0305 0.00 13.43 7.9 24.3 1521 NNE | 18 577 0.228 69.2 82 57 30.07 0002 29.95 1700 12.7
8/23/20 86.8 1436 79.2 0545 0.00 13.43 7.5 30.1 1302 NE | 47 644 0.249 69.3 73 55 30.08 2218 29.96 1525 12.8
8/22/20 85.6 1510 77.3 0306 0.00 13.43 6.5 24.9 1251 NNE | 31 648 0.238 69.0 76 58 30.05 2249 29.96 1542 12.8
8/21/20 85.0 1319 77.7 0200 0.00 13.43 7.8 25.0 1203 NE | 37 595 0.231 68.0 74 56 30.08 0003 29.98 1549 12.8
Max 86.8 - 79.2 - 0.06 - 10.2 32.7 - - 668 0.263 69.6 90 62 30.13 - 30.00 - 12.8
Avg - - - - - - 7.6 - - - - - 68.0 - - - - - - -
Min 83.5 - 74.2 - 0.00 - 4.9 19.0 - - 485 0.193 66.3 70 45 30.02 - 29.91 - 12.7